createdAt,value
2023-04-15T00:02:19.737Z,53.10
2023-04-15T00:04:49.146Z,45.88
2023-04-15T00:07:18.103Z,40.25
2023-04-15T00:09:46.121Z,48.47
2023-04-15T00:12:13.749Z,59.58
2023-04-15T00:14:41.591Z,52.92
2023-04-15T00:17:09.512Z,63.83
2023-04-15T00:19:37.120Z,55.35
2023-04-15T00:22:04.937Z,54.90
2023-04-15T00:24:32.759Z,55.45
2023-04-15T00:27:00.617Z,59.20
2023-04-15T00:29:28.443Z,60.45
2023-04-15T00:31:56.985Z,46.72
2023-04-15T00:34:24.910Z,42.63
2023-04-15T00:36:52.690Z,55.83
2023-04-15T00:41:49.399Z,50.17
2023-04-15T00:44:19.274Z,58.63
2023-04-15T00:46:49.045Z,57.53
2023-04-15T00:49:18.722Z,62.95
2023-04-15T00:51:46.461Z,55.50
2023-04-15T00:54:14.286Z,46.30
2023-04-15T00:56:43.038Z,53.22
2023-04-15T00:59:11.130Z,55.40
2023-04-15T01:01:39.038Z,45.70
2023-04-15T01:04:07.381Z,57.30
2023-04-15T01:06:35.163Z,57.42
2023-04-15T01:09:03.419Z,53.30
2023-04-15T01:11:36.020Z,36.65
2023-04-15T01:14:04.536Z,58.28
2023-04-15T01:16:32.261Z,48.97
2023-04-15T01:19:00.604Z,57.33
2023-04-15T01:21:28.318Z,45.67
2023-04-15T01:23:56.980Z,66.93
2023-04-15T01:26:25.422Z,65.22
2023-04-15T01:28:53.567Z,51.17
2023-04-15T01:31:22.224Z,49.38
2023-04-15T01:36:37.165Z,66.03
2023-04-15T01:39:05.678Z,71.88
2023-04-15T01:41:33.488Z,40.75
2023-04-15T01:44:03.433Z,46.03
2023-04-15T01:46:32.600Z,54.60
2023-04-15T01:49:02.776Z,60.10
2023-04-15T01:51:33.469Z,37.65
2023-04-15T01:54:02.426Z,55.75
2023-04-15T01:56:32.235Z,48.15
2023-04-15T01:59:01.949Z,60.33
2023-04-15T02:01:31.171Z,57.80
2023-04-15T02:04:01.846Z,47.75
2023-04-15T02:06:33.388Z,50.72
2023-04-15T02:09:02.449Z,76.05
2023-04-15T02:11:32.254Z,49.50
2023-04-15T02:14:01.037Z,40.40
2023-04-15T02:16:29.973Z,60.92
2023-04-15T02:19:00.019Z,52.92
2023-04-15T02:21:29.390Z,61.13
2023-04-15T02:23:58.237Z,63.22
2023-04-15T02:26:27.227Z,66.57
2023-04-15T02:28:56.608Z,65.25
2023-04-15T02:31:26.066Z,64.38
2023-04-15T02:33:55.265Z,58.22
2023-04-15T02:36:24.288Z,61.67
2023-04-15T02:38:53.099Z,69.53
2023-04-15T02:41:27.195Z,67.57
2023-04-15T02:43:57.186Z,63.63
2023-04-15T02:46:27.564Z,76.40
2023-04-15T02:48:56.760Z,70.53
2023-04-15T02:51:32.177Z,65.32
2023-04-15T02:54:01.633Z,78.75
2023-04-15T02:56:30.987Z,66.70
2023-04-15T02:59:00.482Z,77.85
2023-04-15T03:01:29.670Z,72.40
2023-04-15T03:03:58.798Z,70.95
2023-04-15T03:06:27.810Z,88.35
2023-04-15T03:08:57.041Z,78.13
2023-04-15T03:11:27.344Z,80.40
2023-04-15T03:13:57.023Z,85.72
2023-04-15T03:16:33.978Z,94.32
2023-04-15T03:19:03.360Z,88.22
2023-04-15T03:21:33.627Z,103.45
2023-04-15T03:24:02.405Z,95.78
2023-04-15T03:26:32.300Z,94.38
2023-04-15T03:29:05.091Z,107.90
2023-04-15T03:31:34.029Z,90.15
2023-04-15T03:34:03.364Z,132.18
2023-04-15T03:36:33.171Z,99.18
2023-04-15T03:39:04.880Z,103.40
2023-04-15T03:41:34.036Z,116.57
2023-04-15T03:44:03.215Z,125.95
2023-04-15T03:46:32.648Z,127.32
2023-04-15T03:49:02.208Z,137.48
2023-04-15T03:51:31.812Z,120.13
2023-04-15T03:54:00.600Z,122.50
2023-04-15T03:56:29.452Z,182.70
2023-04-15T03:58:58.542Z,165.93
2023-04-15T04:01:27.903Z,170.57
2023-04-15T04:03:56.821Z,189.82
2023-04-15T04:06:26.699Z,123.47
2023-04-15T04:08:56.010Z,137.30
2023-04-15T04:11:24.915Z,61.15
2023-04-15T04:13:53.942Z,112.57
2023-04-15T04:16:22.926Z,149.15
2023-04-15T04:18:51.837Z,98.15
2023-04-15T04:21:21.808Z,148.40
2023-04-15T04:23:51.351Z,203.52
2023-04-15T04:26:20.986Z,182.30
2023-04-15T04:28:50.361Z,128.18
2023-04-15T04:31:19.370Z,213.43
2023-04-15T04:33:48.865Z,100.68
2023-04-15T04:36:17.601Z,84.47
2023-04-15T04:38:46.860Z,85.63
2023-04-15T04:41:16.046Z,79.20
2023-04-15T04:43:44.797Z,144.52
2023-04-15T04:46:14.042Z,140.32
2023-04-15T04:48:43.641Z,208.52
2023-04-15T04:51:12.776Z,298.88
2023-04-15T04:53:43.368Z,266.95
2023-04-15T04:56:12.591Z,88.05
2023-04-15T04:58:41.722Z,124.88
2023-04-15T05:01:10.721Z,116.03
2023-04-15T05:03:39.993Z,167.48
2023-04-15T05:06:09.238Z,237.23
2023-04-15T05:08:39.926Z,287.95
2023-04-15T05:11:10.310Z,395.85
2023-04-15T05:13:39.436Z,365.95
2023-04-15T05:16:08.520Z,388.80
2023-04-15T05:18:38.128Z,340.27
2023-04-15T05:21:08.049Z,312.55
2023-04-15T05:23:37.720Z,381.05
2023-04-15T05:26:06.789Z,226.18
2023-04-15T05:28:35.908Z,475.83
2023-04-15T05:31:06.216Z,1023.00
2023-04-15T05:33:35.523Z,599.08
2023-04-15T05:36:04.837Z,616.95
2023-04-15T05:38:33.942Z,391.65
2023-04-15T05:41:02.754Z,405.70
2023-04-15T05:43:31.813Z,432.27
2023-04-15T05:46:00.645Z,319.67
2023-04-15T05:48:29.492Z,401.20
2023-04-15T05:50:58.786Z,411.95
2023-04-15T05:53:27.624Z,301.58
2023-04-15T05:55:56.450Z,127.10
2023-04-15T05:58:25.477Z,120.43
2023-04-15T06:00:54.312Z,182.85
2023-04-15T06:03:23.827Z,198.88
2023-04-15T06:05:52.664Z,134.13
2023-04-15T06:08:22.232Z,126.90
2023-04-15T06:10:51.142Z,108.95
2023-04-15T06:13:20.088Z,100.40
2023-04-15T06:15:49.550Z,164.50
2023-04-15T06:18:18.403Z,118.38
2023-04-15T06:20:47.631Z,69.60
2023-04-15T06:23:16.799Z,79.90
2023-04-15T06:25:45.892Z,80.07
2023-04-15T06:28:14.764Z,86.25
2023-04-15T06:30:44.083Z,86.32
2023-04-15T06:33:13.418Z,75.03
2023-04-15T06:35:42.156Z,79.68
2023-04-15T06:38:11.109Z,77.47
2023-04-15T06:40:39.963Z,81.93
2023-04-15T06:43:09.249Z,78.90
2023-04-15T06:45:38.272Z,79.03
2023-04-15T06:48:07.328Z,63.90
2023-04-15T06:50:36.219Z,62.30
2023-04-15T06:53:05.782Z,60.60
2023-04-15T06:55:34.564Z,37.85
2023-04-15T06:58:03.582Z,52.70
2023-04-15T07:00:33.822Z,45.85
2023-04-15T07:03:03.862Z,56.33
2023-04-15T07:05:33.554Z,60.72
2023-04-15T07:08:03.022Z,57.47
2023-04-15T07:10:34.441Z,45.92
2023-04-15T07:13:04.618Z,54.53
2023-04-15T07:15:33.814Z,53.08
2023-04-15T07:18:02.733Z,54.17
2023-04-15T07:20:31.833Z,51.47
2023-04-15T07:23:00.579Z,47.80
2023-04-15T07:25:29.622Z,44.50
2023-04-15T07:27:58.703Z,39.13
2023-04-15T07:30:27.920Z,40.13
2023-04-15T07:32:56.711Z,37.25
2023-04-15T07:35:26.666Z,35.58
2023-04-15T07:37:55.616Z,37.00
2023-04-15T07:40:25.284Z,30.60
2023-04-15T07:42:54.630Z,32.60
2023-04-15T07:45:23.407Z,32.35
2023-04-15T07:47:52.524Z,27.40
2023-04-15T07:50:21.806Z,20.08
2023-04-15T07:52:52.450Z,20.33
2023-04-15T07:55:23.455Z,18.33
2023-04-15T07:57:52.421Z,15.00
2023-04-15T08:00:21.307Z,10.43
2023-04-15T08:02:50.360Z,13.68
2023-04-15T08:05:20.041Z,16.73
2023-04-15T08:07:49.360Z,16.42
2023-04-15T08:10:18.266Z,15.07
2023-04-15T08:12:49.728Z,19.35
2023-04-15T08:15:21.070Z,16.35
2023-04-15T08:17:49.878Z,9.75
2023-04-15T08:20:19.730Z,13.15
2023-04-15T08:22:52.132Z,15.05
2023-04-15T08:25:21.314Z,11.95
2023-04-15T08:27:50.939Z,15.43
2023-04-15T08:30:20.381Z,6.28
2023-04-15T08:32:51.214Z,9.40
2023-04-15T08:35:20.109Z,10.38
2023-04-15T08:37:48.975Z,13.05
2023-04-15T08:40:17.882Z,9.35
2023-04-15T08:42:50.079Z,14.90
2023-04-15T08:45:19.471Z,8.02
2023-04-15T08:47:51.750Z,13.07
2023-04-15T08:50:21.128Z,10.93
2023-04-15T08:52:50.061Z,12.07
2023-04-15T08:55:20.684Z,11.30
2023-04-15T08:57:49.641Z,6.95
2023-04-15T09:00:19.004Z,14.50
2023-04-15T09:02:48.750Z,13.68
2023-04-15T09:05:18.141Z,12.07
2023-04-15T09:07:47.678Z,11.82
2023-04-15T09:10:16.657Z,10.02
2023-04-15T09:12:45.611Z,9.30
2023-04-15T09:15:15.677Z,11.05
2023-04-15T09:17:45.710Z,9.10
2023-04-15T09:20:16.294Z,10.18
2023-04-15T09:22:47.124Z,11.68
2023-04-15T09:25:16.475Z,10.27
2023-04-15T09:27:56.925Z,10.60
2023-04-15T09:30:26.569Z,8.60
2023-04-15T09:33:02.429Z,8.13
2023-04-15T09:35:31.617Z,10.90
2023-04-15T09:38:09.954Z,10.55
2023-04-15T09:40:42.599Z,9.52
2023-04-15T09:43:14.458Z,11.05
2023-04-15T09:45:53.224Z,10.23
2023-04-15T09:48:31.193Z,10.05
2023-04-15T09:51:01.522Z,12.10
2023-04-15T09:53:34.648Z,8.45
2023-04-15T09:56:04.431Z,10.18
2023-04-15T09:58:35.303Z,8.27
2023-04-15T10:01:05.880Z,7.97
2023-04-15T10:03:39.039Z,8.48
2023-04-15T10:06:09.212Z,11.73
2023-04-15T10:08:39.230Z,8.85
2023-04-15T10:11:08.697Z,9.05
2023-04-15T10:13:38.939Z,11.00
2023-04-15T10:16:19.497Z,9.50
2023-04-15T10:18:54.670Z,8.43
2023-04-15T10:21:24.016Z,8.93
2023-04-15T10:23:52.940Z,10.18
2023-04-15T10:26:22.229Z,10.15
2023-04-15T10:28:52.401Z,7.32
2023-04-15T10:31:21.708Z,6.95
2023-04-15T10:33:52.132Z,7.20
2023-04-15T10:36:21.491Z,8.55
2023-04-15T10:38:50.309Z,7.18
2023-04-15T10:41:27.985Z,8.35
2023-04-15T10:44:01.163Z,9.73
2023-04-15T10:46:44.075Z,7.65
2023-04-15T10:49:17.668Z,11.40
2023-04-15T10:51:53.011Z,7.10
2023-04-15T10:54:24.862Z,8.10
2023-04-15T10:57:06.594Z,8.63
2023-04-15T11:00:11.298Z,8.45
2023-04-15T11:02:44.661Z,6.70
2023-04-15T11:05:18.248Z,12.77
2023-04-15T11:07:47.199Z,13.52
2023-04-15T11:10:20.892Z,10.13
2023-04-15T11:12:57.581Z,12.85
2023-04-15T11:15:40.323Z,10.73
2023-04-15T11:18:16.617Z,13.70
2023-04-15T11:21:03.417Z,11.88
2023-04-15T11:23:34.166Z,11.60
2023-04-15T11:26:06.944Z,13.10
2023-04-15T11:28:38.692Z,12.55
2023-04-15T11:31:12.764Z,13.18
2023-04-15T11:33:56.967Z,10.98
2023-04-15T11:36:30.167Z,12.52
2023-04-15T11:38:59.892Z,10.75
2023-04-15T11:41:28.729Z,10.50
2023-04-15T11:43:57.673Z,10.48
2023-04-15T11:46:31.716Z,10.00
2023-04-15T11:49:00.785Z,10.65
2023-04-15T11:51:35.960Z,10.63
2023-04-15T11:54:04.180Z,10.15
2023-04-15T11:56:32.093Z,8.93
2023-04-15T11:59:00.275Z,10.95
2023-04-15T12:01:44.053Z,9.02
2023-04-15T12:04:20.151Z,9.50
2023-04-15T12:06:50.064Z,11.15
2023-04-15T12:09:18.093Z,8.20
2023-04-15T12:14:15.863Z,9.77
2023-04-15T12:16:48.657Z,7.72
2023-04-15T12:19:23.359Z,8.82
2023-04-15T12:21:52.312Z,10.00
2023-04-15T12:24:24.703Z,7.78
2023-04-15T12:26:57.729Z,7.18
2023-04-15T12:29:29.849Z,6.68
2023-04-15T12:32:08.536Z,9.30
2023-04-15T12:34:40.660Z,7.93
2023-04-15T12:37:10.109Z,6.93
2023-04-15T12:39:42.748Z,9.45
2023-04-15T12:42:11.362Z,6.82
2023-04-15T12:44:39.409Z,9.15
2023-04-15T12:47:08.208Z,7.30
2023-04-15T12:49:35.924Z,6.70
2023-04-15T12:52:03.935Z,7.57
2023-04-15T12:56:59.933Z,7.43
2023-04-15T12:59:27.498Z,7.53
2023-04-15T13:01:55.513Z,7.22
2023-04-15T13:04:23.450Z,6.57
2023-04-15T13:06:51.729Z,9.02
2023-04-15T13:09:19.394Z,5.93
2023-04-15T13:11:46.975Z,7.10
2023-04-15T13:14:14.829Z,8.63
2023-04-15T13:16:42.395Z,7.15
2023-04-15T13:19:10.070Z,6.43
2023-04-15T13:21:38.025Z,5.25
2023-04-15T13:26:36.045Z,7.05
2023-04-15T13:29:05.777Z,8.05
2023-04-15T13:36:29.150Z,6.68
2023-04-15T13:41:41.296Z,6.72
2023-04-15T13:44:08.919Z,6.10
2023-04-15T13:46:38.091Z,5.85
2023-04-15T13:49:06.963Z,6.50
2023-04-15T13:51:36.956Z,6.60
2023-04-15T13:54:04.951Z,10.57
2023-04-15T13:56:33.095Z,7.95
2023-04-15T14:01:30.160Z,8.30
2023-04-15T14:06:26.250Z,7.93
2023-04-15T14:08:54.938Z,7.38
2023-04-15T14:11:22.596Z,6.55
2023-04-15T14:13:50.610Z,7.28
2023-04-15T14:18:46.475Z,6.15
2023-04-15T14:21:14.113Z,6.22
2023-04-15T14:23:41.630Z,6.93
2023-04-15T14:26:09.266Z,7.32
2023-04-15T14:28:38.574Z,6.85
2023-04-15T14:31:07.523Z,6.63
2023-04-15T14:33:35.123Z,7.13
2023-04-15T14:36:02.855Z,6.32
2023-04-15T14:38:31.087Z,17.15
2023-04-15T14:40:58.876Z,5.28
2023-04-15T14:43:26.372Z,7.78
2023-04-15T14:45:54.143Z,5.00
2023-04-15T14:48:22.109Z,39.72
2023-04-15T14:50:49.707Z,5.78
2023-04-15T14:53:17.286Z,6.45
2023-04-15T14:55:45.668Z,5.68
2023-04-15T14:58:13.176Z,5.90
2023-04-15T15:00:42.129Z,7.10
2023-04-15T15:03:14.144Z,6.03
2023-04-15T15:05:44.809Z,5.93
2023-04-15T15:08:13.506Z,6.20
2023-04-15T15:10:49.458Z,8.20
2023-04-15T15:13:18.786Z,7.07
2023-04-15T15:15:46.633Z,8.10
2023-04-15T15:18:14.159Z,7.18
2023-04-15T15:20:41.705Z,6.57
2023-04-15T15:23:09.754Z,5.82
2023-04-15T15:25:37.414Z,9.43
2023-04-15T15:28:05.720Z,7.70
2023-04-15T15:30:33.398Z,82.57
2023-04-15T15:33:01.013Z,17.38
2023-04-15T15:35:28.645Z,6.05
2023-04-15T15:37:56.492Z,5.43
2023-04-15T15:42:52.605Z,15.27
2023-04-15T15:45:20.952Z,6.57
2023-04-15T15:47:48.450Z,7.72
2023-04-15T15:50:16.060Z,7.90
2023-04-15T15:52:43.597Z,5.97
2023-04-15T15:55:11.267Z,6.78
2023-04-15T15:57:38.784Z,6.80
2023-04-15T16:03:05.039Z,7.32
2023-04-15T16:05:28.402Z,7.30
2023-04-15T16:07:55.985Z,6.15
2023-04-15T16:10:23.598Z,7.40
2023-04-15T16:15:18.735Z,6.22
2023-04-15T17:37:15.930Z,6.63
2023-04-15T17:40:04.364Z,9.25
2023-04-15T17:42:53.982Z,10.70
2023-04-15T17:45:41.438Z,7.63
2023-04-15T17:54:04.605Z,7.70
2023-04-15T17:56:52.201Z,6.55
2023-04-15T17:59:43.972Z,6.28
2023-04-15T18:02:32.754Z,8.38
2023-04-15T18:05:22.010Z,8.48
2023-04-15T18:08:09.814Z,6.63
2023-04-15T18:10:57.288Z,8.05
2023-04-15T18:13:45.187Z,8.18
2023-04-15T18:16:33.107Z,8.43
2023-04-15T18:19:23.212Z,7.68
2023-04-15T18:21:52.230Z,7.30
2023-04-15T18:24:19.828Z,7.50
2023-04-15T18:26:49.217Z,7.75
2023-04-15T18:29:18.680Z,8.05
2023-04-15T18:31:46.282Z,8.32
2023-04-15T18:34:13.979Z,8.10
2023-04-15T18:36:41.702Z,11.23
2023-04-15T18:39:09.625Z,12.52
2023-04-15T18:44:04.922Z,11.43
2023-04-15T18:46:32.536Z,11.90
2023-04-15T18:49:00.116Z,9.25
2023-04-15T18:51:28.065Z,9.05
2023-04-15T18:53:55.707Z,8.73
2023-04-15T18:56:23.337Z,7.95
2023-04-15T18:59:19.417Z,12.40
2023-04-15T19:01:38.626Z,12.77
2023-04-15T19:04:06.436Z,12.88
2023-04-15T19:06:34.147Z,10.48
2023-04-15T19:09:02.459Z,11.68
2023-04-15T19:11:30.341Z,11.38
2023-04-15T19:13:57.840Z,9.73
2023-04-15T19:16:25.616Z,9.93
2023-04-15T19:18:53.472Z,10.25
2023-04-15T19:21:21.197Z,13.10
2023-04-15T19:23:50.370Z,13.20
2023-04-15T19:26:18.064Z,15.02
2023-04-15T19:28:45.620Z,10.50
2023-04-15T19:31:13.228Z,13.10
2023-04-15T19:33:40.803Z,13.25
2023-04-15T19:36:08.454Z,13.13
2023-04-15T19:38:36.972Z,13.35
2023-04-15T19:41:04.662Z,17.48
2023-04-15T19:43:33.107Z,12.63
2023-04-15T19:46:01.065Z,12.80
2023-04-15T19:48:28.773Z,15.68
2023-04-15T19:50:57.379Z,10.93
2023-04-15T19:53:25.783Z,18.73
2023-04-15T19:55:53.755Z,24.23
2023-04-15T19:58:21.731Z,22.52
2023-04-15T20:00:49.491Z,22.85
2023-04-15T20:03:19.030Z,25.85
2023-04-15T20:05:47.055Z,32.05
2023-04-15T20:08:14.894Z,36.58
2023-04-15T20:10:42.591Z,32.83
2023-04-15T20:13:10.112Z,25.23
2023-04-15T20:15:37.948Z,34.13
2023-04-15T20:18:05.714Z,24.35
2023-04-15T20:20:34.883Z,21.45
2023-04-15T20:23:02.442Z,23.95
2023-04-15T20:25:30.059Z,22.02
2023-04-15T20:28:00.424Z,24.35
2023-04-15T20:30:29.323Z,27.75
2023-04-15T20:32:57.575Z,26.98
2023-04-15T20:37:55.792Z,24.98
2023-04-15T20:40:23.554Z,30.23
2023-04-15T20:42:51.477Z,27.45
2023-04-15T20:45:19.012Z,26.33
2023-04-15T20:47:46.830Z,27.80
2023-04-15T20:52:42.482Z,35.35
2023-04-15T20:55:10.143Z,39.63
2023-04-15T20:57:38.012Z,34.60
2023-04-15T21:00:06.514Z,35.60
2023-04-15T21:02:34.245Z,39.83
2023-04-15T21:05:01.888Z,36.53
2023-04-15T21:07:29.610Z,31.60
2023-04-15T21:09:57.598Z,31.40
2023-04-15T21:12:25.117Z,31.90
2023-04-15T21:14:52.717Z,29.55
2023-04-15T21:17:20.481Z,28.85
2023-04-15T21:19:48.160Z,28.55
2023-04-15T21:22:16.178Z,27.00
2023-04-15T21:24:44.677Z,28.23
2023-04-15T21:27:12.290Z,29.75
2023-04-15T21:29:40.539Z,27.88
2023-04-15T21:32:08.827Z,29.38
2023-04-15T21:34:36.892Z,26.42
2023-04-15T21:37:04.668Z,22.73
2023-04-15T21:39:32.230Z,23.88
2023-04-15T21:41:59.835Z,29.92
2023-04-15T21:44:28.277Z,25.77
2023-04-15T21:46:56.515Z,30.58
2023-04-15T21:49:25.602Z,27.77
2023-04-15T21:51:53.761Z,26.65
2023-04-15T21:54:21.415Z,27.85
2023-04-15T21:56:50.078Z,25.17
2023-04-15T21:59:17.979Z,23.75
2023-04-15T22:01:45.922Z,25.55
2023-04-15T22:04:13.818Z,26.02
2023-04-15T22:06:41.480Z,20.63
2023-04-15T22:09:10.588Z,22.75
2023-04-15T22:11:39.923Z,19.90
2023-04-15T22:14:07.593Z,24.23
2023-04-15T22:16:35.137Z,19.77
2023-04-15T22:19:03.033Z,25.38
2023-04-15T22:21:30.668Z,24.30
2023-04-15T22:24:32.593Z,30.10
2023-04-15T22:26:45.970Z,27.95
2023-04-15T22:29:13.600Z,28.77
2023-04-15T22:31:41.970Z,29.45
2023-04-15T22:34:09.994Z,32.42
2023-04-15T22:36:37.533Z,30.02
2023-04-15T22:39:05.235Z,32.35
2023-04-15T22:41:33.948Z,32.65
2023-04-15T22:44:01.430Z,32.22
2023-04-15T22:46:29.479Z,30.88
2023-04-15T22:48:57.176Z,31.23
2023-04-15T22:51:28.074Z,37.22
2023-04-15T22:53:56.767Z,37.10
2023-04-15T22:56:24.437Z,32.35
2023-04-15T22:58:52.687Z,30.80
2023-04-15T23:03:56.255Z,27.70
2023-04-15T23:06:27.640Z,31.17
2023-04-15T23:08:55.368Z,32.15
2023-04-15T23:11:22.988Z,33.55
2023-04-15T23:13:50.882Z,30.92
2023-04-15T23:18:46.594Z,32.78
2023-04-15T23:23:41.946Z,31.73
2023-04-15T23:26:09.476Z,31.20
2023-04-15T23:28:37.001Z,32.80
2023-04-15T23:31:04.842Z,27.30
2023-04-15T23:33:32.674Z,32.45
2023-04-15T23:36:00.329Z,26.35
2023-04-15T23:38:27.853Z,27.77
2023-04-15T23:40:55.363Z,28.10
2023-04-15T23:43:22.956Z,39.65
2023-04-15T23:45:50.848Z,30.80
2023-04-15T23:50:45.892Z,34.15
2023-04-15T23:53:13.394Z,27.67
2023-04-15T23:55:40.883Z,26.23
2023-04-15T23:58:08.510Z,31.33
